sensor_id;sensor_type;location;lat;lon;timestamp;P1;durP1;ratioP1;P2;durP2;ratioP2
23676;SDS011;31493;49.058;12.190;2023-06-22T00:01:46;8.85;;;6.43;;
23676;SDS011;31493;49.058;12.190;2023-06-22T00:04:13;8.15;;;5.97;;
23676;SDS011;31493;49.058;12.190;2023-06-22T00:06:40;8.30;;;6.00;;
23676;SDS011;31493;49.058;12.190;2023-06-22T00:09:07;11.05;;;6.00;;
23676;SDS011;31493;49.058;12.190;2023-06-22T00:11:35;9.77;;;6.30;;
23676;SDS011;31493;49.058;12.190;2023-06-22T00:14:04;10.23;;;6.78;;
23676;SDS011;31493;49.058;12.190;2023-06-22T00:18:58;12.20;;;6.55;;
23676;SDS011;31493;49.058;12.190;2023-06-22T00:23:54;12.85;;;7.65;;
23676;SDS011;31493;49.058;12.190;2023-06-22T00:26:21;15.70;;;7.63;;
23676;SDS011;31493;49.058;12.190;2023-06-22T00:28:48;10.27;;;7.10;;
23676;SDS011;31493;49.058;12.190;2023-06-22T00:31:17;10.90;;;6.85;;
23676;SDS011;31493;49.058;12.190;2023-06-22T00:33:44;10.38;;;7.15;;
23676;SDS011;31493;49.058;12.190;2023-06-22T00:36:11;9.88;;;6.95;;
23676;SDS011;31493;49.058;12.190;2023-06-22T00:38:41;10.25;;;6.75;;
23676;SDS011;31493;49.058;12.190;2023-06-22T00:41:08;10.52;;;6.85;;
23676;SDS011;31493;49.058;12.190;2023-06-22T00:43:35;10.57;;;6.68;;
23676;SDS011;31493;49.058;12.190;2023-06-22T00:46:02;10.38;;;6.72;;
23676;SDS011;31493;49.058;12.190;2023-06-22T00:48:31;13.70;;;7.60;;
23676;SDS011;31493;49.058;12.190;2023-06-22T00:50:58;9.80;;;6.88;;
23676;SDS011;31493;49.058;12.190;2023-06-22T00:53:26;9.20;;;7.20;;
23676;SDS011;31493;49.058;12.190;2023-06-22T00:55:53;9.43;;;7.25;;
23676;SDS011;31493;49.058;12.190;2023-06-22T00:58:21;10.02;;;6.60;;
23676;SDS011;31493;49.058;12.190;2023-06-22T01:00:51;9.18;;;7.07;;
23676;SDS011;31493;49.058;12.190;2023-06-22T01:03:18;11.00;;;7.50;;
23676;SDS011;31493;49.058;12.190;2023-06-22T01:05:47;9.97;;;7.43;;
23676;SDS011;31493;49.058;12.190;2023-06-22T01:08:19;9.95;;;7.88;;
23676;SDS011;31493;49.058;12.190;2023-06-22T01:10:53;11.38;;;7.57;;
23676;SDS011;31493;49.058;12.190;2023-06-22T01:13:28;11.10;;;7.82;;
23676;SDS011;31493;49.058;12.190;2023-06-22T01:16:00;11.77;;;8.02;;
23676;SDS011;31493;49.058;12.190;2023-06-22T01:18:30;12.57;;;7.38;;
23676;SDS011;31493;49.058;12.190;2023-06-22T01:21:00;12.23;;;7.63;;
23676;SDS011;31493;49.058;12.190;2023-06-22T01:23:29;11.85;;;7.53;;
23676;SDS011;31493;49.058;12.190;2023-06-22T01:26:05;14.48;;;8.18;;
23676;SDS011;31493;49.058;12.190;2023-06-22T01:28:43;14.02;;;7.72;;
23676;SDS011;31493;49.058;12.190;2023-06-22T01:31:13;13.48;;;6.90;;
23676;SDS011;31493;49.058;12.190;2023-06-22T01:33:43;12.48;;;7.55;;
23676;SDS011;31493;49.058;12.190;2023-06-22T01:36:12;9.77;;;8.05;;
23676;SDS011;31493;49.058;12.190;2023-06-22T01:38:41;14.00;;;7.68;;
23676;SDS011;31493;49.058;12.190;2023-06-22T01:41:09;9.18;;;6.97;;
23676;SDS011;31493;49.058;12.190;2023-06-22T01:43:37;11.13;;;7.00;;
23676;SDS011;31493;49.058;12.190;2023-06-22T01:46:06;13.25;;;7.30;;
23676;SDS011;31493;49.058;12.190;2023-06-22T01:48:34;11.10;;;6.90;;
23676;SDS011;31493;49.058;12.190;2023-06-22T01:51:01;10.57;;;7.20;;
23676;SDS011;31493;49.058;12.190;2023-06-22T01:53:29;10.50;;;6.93;;
23676;SDS011;31493;49.058;12.190;2023-06-22T01:55:56;9.40;;;6.30;;
23676;SDS011;31493;49.058;12.190;2023-06-22T01:58:25;8.52;;;6.50;;
23676;SDS011;31493;49.058;12.190;2023-06-22T02:00:56;11.55;;;7.03;;
23676;SDS011;31493;49.058;12.190;2023-06-22T02:03:28;13.75;;;7.40;;
23676;SDS011;31493;49.058;12.190;2023-06-22T02:06:01;10.05;;;7.47;;
23676;SDS011;31493;49.058;12.190;2023-06-22T02:08:38;13.05;;;7.57;;
23676;SDS011;31493;49.058;12.190;2023-06-22T02:11:08;11.43;;;7.20;;
23676;SDS011;31493;49.058;12.190;2023-06-22T02:13:36;11.02;;;7.05;;
23676;SDS011;31493;49.058;12.190;2023-06-22T02:16:08;10.98;;;7.10;;
23676;SDS011;31493;49.058;12.190;2023-06-22T02:18:37;10.02;;;7.22;;
23676;SDS011;31493;49.058;12.190;2023-06-22T02:21:05;9.35;;;6.85;;
23676;SDS011;31493;49.058;12.190;2023-06-22T02:23:33;11.88;;;8.07;;
23676;SDS011;31493;49.058;12.190;2023-06-22T02:26:02;12.02;;;7.55;;
23676;SDS011;31493;49.058;12.190;2023-06-22T02:30:56;13.02;;;8.98;;
23676;SDS011;31493;49.058;12.190;2023-06-22T02:33:23;16.10;;;8.30;;
23676;SDS011;31493;49.058;12.190;2023-06-22T02:35:52;10.23;;;8.20;;
23676;SDS011;31493;49.058;12.190;2023-06-22T02:38:19;13.57;;;8.13;;
23676;SDS011;31493;49.058;12.190;2023-06-22T02:40:46;10.57;;;7.90;;
23676;SDS011;31493;49.058;12.190;2023-06-22T02:43:13;12.32;;;8.68;;
23676;SDS011;31493;49.058;12.190;2023-06-22T02:45:40;13.38;;;9.10;;
23676;SDS011;31493;49.058;12.190;2023-06-22T02:48:07;13.13;;;8.65;;
23676;SDS011;31493;49.058;12.190;2023-06-22T02:50:34;15.25;;;9.75;;
23676;SDS011;31493;49.058;12.190;2023-06-22T02:53:03;15.13;;;9.98;;
23676;SDS011;31493;49.058;12.190;2023-06-22T02:55:30;11.93;;;9.48;;
23676;SDS011;31493;49.058;12.190;2023-06-22T02:57:57;17.77;;;10.02;;
23676;SDS011;31493;49.058;12.190;2023-06-22T03:00:25;16.65;;;10.73;;
23676;SDS011;31493;49.058;12.190;2023-06-22T03:02:56;13.02;;;10.32;;
23676;SDS011;31493;49.058;12.190;2023-06-22T03:05:23;15.63;;;10.95;;
23676;SDS011;31493;49.058;12.190;2023-06-22T03:07:51;16.33;;;10.45;;
23676;SDS011;31493;49.058;12.190;2023-06-22T03:10:20;17.45;;;10.18;;
23676;SDS011;31493;49.058;12.190;2023-06-22T03:12:47;14.48;;;10.93;;
23676;SDS011;31493;49.058;12.190;2023-06-22T03:15:14;14.65;;;10.18;;
23676;SDS011;31493;49.058;12.190;2023-06-22T03:17:42;13.30;;;10.48;;
23676;SDS011;31493;49.058;12.190;2023-06-22T03:20:10;15.23;;;11.05;;
23676;SDS011;31493;49.058;12.190;2023-06-22T03:22:38;12.83;;;10.50;;
23676;SDS011;31493;49.058;12.190;2023-06-22T03:25:06;13.93;;;9.07;;
23676;SDS011;31493;49.058;12.190;2023-06-22T03:27:39;12.32;;;9.32;;
23676;SDS011;31493;49.058;12.190;2023-06-22T03:30:07;13.35;;;10.15;;
23676;SDS011;31493;49.058;12.190;2023-06-22T03:32:36;15.77;;;10.43;;
23676;SDS011;31493;49.058;12.190;2023-06-22T03:35:03;15.07;;;10.15;;
23676;SDS011;31493;49.058;12.190;2023-06-22T03:37:31;15.68;;;10.70;;
23676;SDS011;31493;49.058;12.190;2023-06-22T03:39:58;14.02;;;10.15;;
23676;SDS011;31493;49.058;12.190;2023-06-22T03:42:26;13.52;;;10.50;;
23676;SDS011;31493;49.058;12.190;2023-06-22T03:44:54;16.15;;;10.98;;
23676;SDS011;31493;49.058;12.190;2023-06-22T03:47:21;14.93;;;10.15;;
23676;SDS011;31493;49.058;12.190;2023-06-22T03:49:48;16.90;;;11.52;;
23676;SDS011;31493;49.058;12.190;2023-06-22T03:52:20;14.55;;;10.00;;
23676;SDS011;31493;49.058;12.190;2023-06-22T03:54:48;15.63;;;10.75;;
23676;SDS011;31493;49.058;12.190;2023-06-22T03:57:15;16.48;;;10.77;;
23676;SDS011;31493;49.058;12.190;2023-06-22T03:59:42;15.65;;;10.30;;
23676;SDS011;31493;49.058;12.190;2023-06-22T04:02:10;14.27;;;10.85;;
23676;SDS011;31493;49.058;12.190;2023-06-22T04:04:37;14.77;;;10.57;;
23676;SDS011;31493;49.058;12.190;2023-06-22T04:07:05;12.73;;;10.38;;
23676;SDS011;31493;49.058;12.190;2023-06-22T04:09:32;14.55;;;10.75;;
23676;SDS011;31493;49.058;12.190;2023-06-22T04:11:59;19.05;;;11.75;;
23676;SDS011;31493;49.058;12.190;2023-06-22T04:14:28;12.35;;;10.45;;
23676;SDS011;31493;49.058;12.190;2023-06-22T04:16:55;14.73;;;10.93;;
23676;SDS011;31493;49.058;12.190;2023-06-22T04:19:23;17.35;;;10.55;;
23676;SDS011;31493;49.058;12.190;2023-06-22T04:21:50;13.07;;;10.13;;
23676;SDS011;31493;49.058;12.190;2023-06-22T04:24:17;13.20;;;9.65;;
23676;SDS011;31493;49.058;12.190;2023-06-22T04:26:44;14.32;;;9.60;;
23676;SDS011;31493;49.058;12.190;2023-06-22T04:29:12;12.25;;;9.65;;
23676;SDS011;31493;49.058;12.190;2023-06-22T04:31:40;18.45;;;9.80;;
23676;SDS011;31493;49.058;12.190;2023-06-22T04:34:07;13.35;;;10.18;;
23676;SDS011;31493;49.058;12.190;2023-06-22T04:36:36;13.32;;;9.73;;
23676;SDS011;31493;49.058;12.190;2023-06-22T04:39:05;12.02;;;9.65;;
23676;SDS011;31493;49.058;12.190;2023-06-22T04:41:35;11.63;;;9.25;;
23676;SDS011;31493;49.058;12.190;2023-06-22T04:44:08;11.68;;;9.38;;
23676;SDS011;31493;49.058;12.190;2023-06-22T04:46:36;9.73;;;7.43;;
23676;SDS011;31493;49.058;12.190;2023-06-22T04:49:05;10.98;;;8.98;;
23676;SDS011;31493;49.058;12.190;2023-06-22T04:51:39;9.95;;;8.65;;
23676;SDS011;31493;49.058;12.190;2023-06-22T04:54:07;10.93;;;8.60;;
23676;SDS011;31493;49.058;12.190;2023-06-22T04:56:35;12.13;;;8.95;;
23676;SDS011;31493;49.058;12.190;2023-06-22T04:59:02;12.38;;;9.00;;
23676;SDS011;31493;49.058;12.190;2023-06-22T05:01:29;12.00;;;8.65;;
23676;SDS011;31493;49.058;12.190;2023-06-22T05:03:57;10.73;;;8.98;;
23676;SDS011;31493;49.058;12.190;2023-06-22T05:06:26;14.68;;;9.68;;
23676;SDS011;31493;49.058;12.190;2023-06-22T05:08:56;11.20;;;8.75;;
23676;SDS011;31493;49.058;12.190;2023-06-22T05:11:24;14.82;;;9.82;;
23676;SDS011;31493;49.058;12.190;2023-06-22T05:13:52;11.33;;;10.03;;
23676;SDS011;31493;49.058;12.190;2023-06-22T05:16:20;13.77;;;10.48;;
23676;SDS011;31493;49.058;12.190;2023-06-22T05:18:50;12.75;;;10.50;;
23676;SDS011;31493;49.058;12.190;2023-06-22T05:21:21;11.80;;;10.05;;
23676;SDS011;31493;49.058;12.190;2023-06-22T05:23:48;10.35;;;9.23;;
23676;SDS011;31493;49.058;12.190;2023-06-22T05:26:17;10.88;;;9.25;;
23676;SDS011;31493;49.058;12.190;2023-06-22T05:28:45;10.48;;;9.05;;
23676;SDS011;31493;49.058;12.190;2023-06-22T05:31:12;10.60;;;8.85;;
23676;SDS011;31493;49.058;12.190;2023-06-22T05:33:40;13.02;;;9.50;;
23676;SDS011;31493;49.058;12.190;2023-06-22T05:36:07;12.77;;;8.95;;
23676;SDS011;31493;49.058;12.190;2023-06-22T05:38:35;12.63;;;8.63;;
23676;SDS011;31493;49.058;12.190;2023-06-22T05:41:03;9.23;;;8.23;;
23676;SDS011;31493;49.058;12.190;2023-06-22T05:43:31;10.75;;;8.73;;
23676;SDS011;31493;49.058;12.190;2023-06-22T05:45:59;11.70;;;8.40;;
23676;SDS011;31493;49.058;12.190;2023-06-22T05:48:26;12.65;;;8.55;;
23676;SDS011;31493;49.058;12.190;2023-06-22T05:50:54;12.45;;;8.02;;
23676;SDS011;31493;49.058;12.190;2023-06-22T05:53:21;10.02;;;8.63;;
23676;SDS011;31493;49.058;12.190;2023-06-22T05:55:48;13.55;;;8.57;;
23676;SDS011;31493;49.058;12.190;2023-06-22T05:58:15;10.45;;;7.70;;
23676;SDS011;31493;49.058;12.190;2023-06-22T06:00:44;13.07;;;8.50;;
23676;SDS011;31493;49.058;12.190;2023-06-22T06:03:11;9.82;;;7.68;;
23676;SDS011;31493;49.058;12.190;2023-06-22T06:05:42;8.77;;;6.93;;
23676;SDS011;31493;49.058;12.190;2023-06-22T06:08:10;11.53;;;7.53;;
23676;SDS011;31493;49.058;12.190;2023-06-22T06:10:37;10.60;;;7.45;;
23676;SDS011;31493;49.058;12.190;2023-06-22T06:13:04;11.63;;;7.38;;
23676;SDS011;31493;49.058;12.190;2023-06-22T06:15:32;10.05;;;8.27;;
23676;SDS011;31493;49.058;12.190;2023-06-22T06:18:00;10.48;;;7.35;;
23676;SDS011;31493;49.058;12.190;2023-06-22T06:20:28;9.20;;;8.00;;
23676;SDS011;31493;49.058;12.190;2023-06-22T06:22:55;11.05;;;7.30;;
23676;SDS011;31493;49.058;12.190;2023-06-22T06:25:22;8.88;;;6.93;;
23676;SDS011;31493;49.058;12.190;2023-06-22T06:27:51;10.02;;;6.50;;
23676;SDS011;31493;49.058;12.190;2023-06-22T06:30:20;11.30;;;7.15;;
23676;SDS011;31493;49.058;12.190;2023-06-22T06:32:48;13.23;;;6.95;;
23676;SDS011;31493;49.058;12.190;2023-06-22T06:35:17;8.23;;;6.30;;
23676;SDS011;31493;49.058;12.190;2023-06-22T06:37:44;9.93;;;6.63;;
23676;SDS011;31493;49.058;12.190;2023-06-22T06:40:13;10.32;;;6.10;;
23676;SDS011;31493;49.058;12.190;2023-06-22T06:42:41;12.30;;;6.45;;
23676;SDS011;31493;49.058;12.190;2023-06-22T06:45:10;10.80;;;6.70;;
23676;SDS011;31493;49.058;12.190;2023-06-22T06:47:37;8.82;;;6.28;;
23676;SDS011;31493;49.058;12.190;2023-06-22T06:50:05;8.73;;;6.20;;
23676;SDS011;31493;49.058;12.190;2023-06-22T06:52:34;8.45;;;6.60;;
23676;SDS011;31493;49.058;12.190;2023-06-22T06:55:01;10.00;;;6.15;;
23676;SDS011;31493;49.058;12.190;2023-06-22T06:57:30;9.70;;;6.05;;
23676;SDS011;31493;49.058;12.190;2023-06-22T06:59:57;10.90;;;5.87;;
23676;SDS011;31493;49.058;12.190;2023-06-22T07:02:25;9.00;;;5.70;;
23676;SDS011;31493;49.058;12.190;2023-06-22T07:04:53;7.90;;;5.72;;
23676;SDS011;31493;49.058;12.190;2023-06-22T07:07:21;11.98;;;6.00;;
23676;SDS011;31493;49.058;12.190;2023-06-22T07:09:50;13.07;;;6.15;;
23676;SDS011;31493;49.058;12.190;2023-06-22T07:12:17;10.85;;;5.82;;
23676;SDS011;31493;49.058;12.190;2023-06-22T07:14:44;9.75;;;5.30;;
23676;SDS011;31493;49.058;12.190;2023-06-22T07:17:11;9.02;;;5.10;;
23676;SDS011;31493;49.058;12.190;2023-06-22T07:19:38;7.57;;;5.50;;
23676;SDS011;31493;49.058;12.190;2023-06-22T07:22:05;8.15;;;5.63;;
23676;SDS011;31493;49.058;12.190;2023-06-22T07:24:32;6.55;;;5.30;;
23676;SDS011;31493;49.058;12.190;2023-06-22T07:27:01;8.25;;;5.35;;
23676;SDS011;31493;49.058;12.190;2023-06-22T07:29:29;17.63;;;5.30;;
23676;SDS011;31493;49.058;12.190;2023-06-22T07:31:57;9.38;;;5.78;;
23676;SDS011;31493;49.058;12.190;2023-06-22T07:34:26;9.75;;;5.57;;
23676;SDS011;31493;49.058;12.190;2023-06-22T07:36:53;10.70;;;5.95;;
23676;SDS011;31493;49.058;12.190;2023-06-22T07:39:20;11.93;;;6.32;;
23676;SDS011;31493;49.058;12.190;2023-06-22T07:41:51;8.13;;;5.95;;
23676;SDS011;31493;49.058;12.190;2023-06-22T07:44:19;8.05;;;5.45;;
23676;SDS011;31493;49.058;12.190;2023-06-22T07:49:14;12.07;;;5.30;;
23676;SDS011;31493;49.058;12.190;2023-06-22T07:51:41;8.68;;;5.70;;
23676;SDS011;31493;49.058;12.190;2023-06-22T07:54:08;11.15;;;5.47;;
23676;SDS011;31493;49.058;12.190;2023-06-22T07:56:36;11.00;;;5.45;;
23676;SDS011;31493;49.058;12.190;2023-06-22T07:59:03;9.47;;;5.47;;
23676;SDS011;31493;49.058;12.190;2023-06-22T08:01:32;9.52;;;5.60;;
23676;SDS011;31493;49.058;12.190;2023-06-22T08:03:59;9.25;;;5.35;;
23676;SDS011;31493;49.058;12.190;2023-06-22T08:06:26;10.40;;;5.53;;
23676;SDS011;31493;49.058;12.190;2023-06-22T08:08:53;8.45;;;4.63;;
23676;SDS011;31493;49.058;12.190;2023-06-22T08:11:22;8.60;;;4.22;;
23676;SDS011;31493;49.058;12.190;2023-06-22T08:13:51;11.88;;;4.50;;
23676;SDS011;31493;49.058;12.190;2023-06-22T08:16:18;10.43;;;4.50;;
23676;SDS011;31493;49.058;12.190;2023-06-22T08:18:46;11.15;;;4.07;;
23676;SDS011;31493;49.058;12.190;2023-06-22T08:21:13;8.77;;;4.47;;
23676;SDS011;31493;49.058;12.190;2023-06-22T08:23:41;7.22;;;4.25;;
23676;SDS011;31493;49.058;12.190;2023-06-22T08:26:08;11.27;;;4.85;;
23676;SDS011;31493;49.058;12.190;2023-06-22T08:28:35;9.38;;;4.35;;
23676;SDS011;31493;49.058;12.190;2023-06-22T08:31:02;9.57;;;4.65;;
23676;SDS011;31493;49.058;12.190;2023-06-22T08:33:29;9.30;;;4.18;;
23676;SDS011;31493;49.058;12.190;2023-06-22T08:35:58;10.20;;;4.10;;
23676;SDS011;31493;49.058;12.190;2023-06-22T08:38:25;10.02;;;4.60;;
23676;SDS011;31493;49.058;12.190;2023-06-22T08:40:52;15.57;;;4.60;;
23676;SDS011;31493;49.058;12.190;2023-06-22T08:43:19;10.60;;;4.50;;
23676;SDS011;31493;49.058;12.190;2023-06-22T08:45:46;8.75;;;4.10;;
23676;SDS011;31493;49.058;12.190;2023-06-22T08:48:13;8.88;;;4.30;;
23676;SDS011;31493;49.058;12.190;2023-06-22T08:50:41;8.75;;;4.55;;
23676;SDS011;31493;49.058;12.190;2023-06-22T08:53:09;8.15;;;4.75;;
23676;SDS011;31493;49.058;12.190;2023-06-22T08:55:36;10.07;;;4.40;;
23676;SDS011;31493;49.058;12.190;2023-06-22T08:58:03;10.02;;;4.13;;
23676;SDS011;31493;49.058;12.190;2023-06-22T09:00:30;8.10;;;4.53;;
23676;SDS011;31493;49.058;12.190;2023-06-22T09:03:00;9.88;;;4.45;;
23676;SDS011;31493;49.058;12.190;2023-06-22T09:05:27;12.48;;;4.30;;
23676;SDS011;31493;49.058;12.190;2023-06-22T09:07:55;9.10;;;4.50;;
23676;SDS011;31493;49.058;12.190;2023-06-22T09:10:25;10.75;;;3.92;;
23676;SDS011;31493;49.058;12.190;2023-06-22T09:12:52;6.65;;;4.20;;
23676;SDS011;31493;49.058;12.190;2023-06-22T09:15:19;9.73;;;4.60;;
23676;SDS011;31493;49.058;12.190;2023-06-22T09:17:47;9.27;;;4.43;;
23676;SDS011;31493;49.058;12.190;2023-06-22T09:20:14;10.82;;;4.45;;
23676;SDS011;31493;49.058;12.190;2023-06-22T09:22:41;9.48;;;4.35;;
23676;SDS011;31493;49.058;12.190;2023-06-22T09:25:09;12.63;;;4.63;;
23676;SDS011;31493;49.058;12.190;2023-06-22T09:27:37;10.20;;;4.60;;
23676;SDS011;31493;49.058;12.190;2023-06-22T09:30:05;10.52;;;4.80;;
23676;SDS011;31493;49.058;12.190;2023-06-22T09:35:01;9.68;;;4.80;;
23676;SDS011;31493;49.058;12.190;2023-06-22T09:37:31;10.18;;;4.10;;
23676;SDS011;31493;49.058;12.190;2023-06-22T09:39:58;15.25;;;4.93;;
23676;SDS011;31493;49.058;12.190;2023-06-22T09:42:25;10.88;;;3.97;;
23676;SDS011;31493;49.058;12.190;2023-06-22T09:44:53;13.30;;;4.47;;
23676;SDS011;31493;49.058;12.190;2023-06-22T09:47:20;10.80;;;4.93;;
23676;SDS011;31493;49.058;12.190;2023-06-22T09:49:47;12.13;;;4.47;;
23676;SDS011;31493;49.058;12.190;2023-06-22T09:52:15;9.55;;;4.63;;
23676;SDS011;31493;49.058;12.190;2023-06-22T09:54:42;15.20;;;5.43;;
23676;SDS011;31493;49.058;12.190;2023-06-22T09:57:09;14.50;;;4.55;;
23676;SDS011;31493;49.058;12.190;2023-06-22T09:59:36;9.45;;;4.10;;
23676;SDS011;31493;49.058;12.190;2023-06-22T10:02:05;12.10;;;4.45;;
23676;SDS011;31493;49.058;12.190;2023-06-22T10:04:32;17.77;;;4.50;;
23676;SDS011;31493;49.058;12.190;2023-06-22T10:06:59;12.30;;;4.20;;
23676;SDS011;31493;49.058;12.190;2023-06-22T10:09:27;12.23;;;4.28;;
23676;SDS011;31493;49.058;12.190;2023-06-22T10:11:54;10.20;;;4.55;;
23676;SDS011;31493;49.058;12.190;2023-06-22T10:14:21;15.18;;;4.28;;
23676;SDS011;31493;49.058;12.190;2023-06-22T10:16:48;13.45;;;4.55;;
23676;SDS011;31493;49.058;12.190;2023-06-22T10:19:16;11.40;;;4.40;;
23676;SDS011;31493;49.058;12.190;2023-06-22T10:21:43;15.18;;;4.85;;
23676;SDS011;31493;49.058;12.190;2023-06-22T10:24:10;12.65;;;4.38;;
23676;SDS011;31493;49.058;12.190;2023-06-22T10:26:37;14.80;;;4.65;;
23676;SDS011;31493;49.058;12.190;2023-06-22T10:29:04;18.17;;;4.60;;
23676;SDS011;31493;49.058;12.190;2023-06-22T10:31:31;13.57;;;4.88;;
23676;SDS011;31493;49.058;12.190;2023-06-22T10:33:58;12.35;;;5.00;;
23676;SDS011;31493;49.058;12.190;2023-06-22T10:36:27;12.70;;;4.82;;
23676;SDS011;31493;49.058;12.190;2023-06-22T10:38:54;11.70;;;4.93;;
23676;SDS011;31493;49.058;12.190;2023-06-22T10:41:21;18.38;;;5.10;;
23676;SDS011;31493;49.058;12.190;2023-06-22T10:43:48;10.40;;;4.93;;
23676;SDS011;31493;49.058;12.190;2023-06-22T10:46:15;10.93;;;4.43;;
23676;SDS011;31493;49.058;12.190;2023-06-22T10:48:42;13.10;;;4.97;;
23676;SDS011;31493;49.058;12.190;2023-06-22T10:51:09;14.18;;;4.82;;
23676;SDS011;31493;49.058;12.190;2023-06-22T10:53:37;11.57;;;4.35;;
23676;SDS011;31493;49.058;12.190;2023-06-22T10:56:04;9.68;;;4.65;;
23676;SDS011;31493;49.058;12.190;2023-06-22T10:58:31;13.18;;;4.55;;
23676;SDS011;31493;49.058;12.190;2023-06-22T11:00:59;15.30;;;5.13;;
23676;SDS011;31493;49.058;12.190;2023-06-22T11:03:26;14.27;;;4.55;;
23676;SDS011;31493;49.058;12.190;2023-06-22T11:05:53;9.77;;;4.65;;
23676;SDS011;31493;49.058;12.190;2023-06-22T11:08:20;11.18;;;4.78;;
23676;SDS011;31493;49.058;12.190;2023-06-22T11:10:48;11.80;;;4.60;;
23676;SDS011;31493;49.058;12.190;2023-06-22T11:15:42;13.85;;;5.13;;
23676;SDS011;31493;49.058;12.190;2023-06-22T11:18:09;13.00;;;4.93;;
23676;SDS011;31493;49.058;12.190;2023-06-22T11:20:36;19.77;;;5.80;;
23676;SDS011;31493;49.058;12.190;2023-06-22T11:23:06;14.90;;;5.20;;
23676;SDS011;31493;49.058;12.190;2023-06-22T11:25:33;10.38;;;4.68;;
23676;SDS011;31493;49.058;12.190;2023-06-22T11:28:03;13.85;;;5.55;;
23676;SDS011;31493;49.058;12.190;2023-06-22T11:30:30;12.75;;;5.20;;
23676;SDS011;31493;49.058;12.190;2023-06-22T11:32:58;15.73;;;5.28;;
23676;SDS011;31493;49.058;12.190;2023-06-22T11:35:25;12.50;;;4.55;;
23676;SDS011;31493;49.058;12.190;2023-06-22T11:37:52;14.32;;;4.90;;
23676;SDS011;31493;49.058;12.190;2023-06-22T11:40:19;11.90;;;5.03;;
23676;SDS011;31493;49.058;12.190;2023-06-22T11:42:48;11.85;;;4.93;;
23676;SDS011;31493;49.058;12.190;2023-06-22T11:45:16;14.15;;;5.22;;
23676;SDS011;31493;49.058;12.190;2023-06-22T11:47:44;15.40;;;5.43;;
23676;SDS011;31493;49.058;12.190;2023-06-22T11:50:11;12.63;;;4.97;;
23676;SDS011;31493;49.058;12.190;2023-06-22T11:52:38;13.70;;;5.22;;
23676;SDS011;31493;49.058;12.190;2023-06-22T11:55:06;13.75;;;5.50;;
23676;SDS011;31493;49.058;12.190;2023-06-22T11:57:33;12.93;;;5.35;;
23676;SDS011;31493;49.058;12.190;2023-06-22T12:02:34;14.10;;;4.72;;
23676;SDS011;31493;49.058;12.190;2023-06-22T12:05:01;17.33;;;5.65;;
23676;SDS011;31493;49.058;12.190;2023-06-22T12:07:30;15.00;;;5.43;;
23676;SDS011;31493;49.058;12.190;2023-06-22T12:09:57;14.70;;;5.95;;
23676;SDS011;31493;49.058;12.190;2023-06-22T12:12:24;17.05;;;5.93;;
23676;SDS011;31493;49.058;12.190;2023-06-22T12:14:51;17.10;;;5.50;;
23676;SDS011;31493;49.058;12.190;2023-06-22T12:17:18;11.60;;;5.55;;
23676;SDS011;31493;49.058;12.190;2023-06-22T12:19:46;13.77;;;5.60;;
23676;SDS011;31493;49.058;12.190;2023-06-22T12:24:40;14.93;;;5.70;;
23676;SDS011;31493;49.058;12.190;2023-06-22T12:27:07;14.20;;;5.85;;
23676;SDS011;31493;49.058;12.190;2023-06-22T12:32:02;13.45;;;5.60;;
23676;SDS011;31493;49.058;12.190;2023-06-22T12:34:30;13.90;;;6.22;;
23676;SDS011;31493;49.058;12.190;2023-06-22T12:36:58;17.38;;;5.85;;
23676;SDS011;31493;49.058;12.190;2023-06-22T12:41:52;16.45;;;6.20;;
23676;SDS011;31493;49.058;12.190;2023-06-22T12:44:19;13.55;;;6.03;;
23676;SDS011;31493;49.058;12.190;2023-06-22T12:46:46;16.30;;;5.93;;
23676;SDS011;31493;49.058;12.190;2023-06-22T12:49:13;12.30;;;6.07;;
23676;SDS011;31493;49.058;12.190;2023-06-22T12:51:40;18.88;;;6.00;;
23676;SDS011;31493;49.058;12.190;2023-06-22T12:54:10;20.17;;;5.78;;
23676;SDS011;31493;49.058;12.190;2023-06-22T12:56:37;16.00;;;5.85;;
23676;SDS011;31493;49.058;12.190;2023-06-22T12:59:05;13.82;;;5.90;;
23676;SDS011;31493;49.058;12.190;2023-06-22T13:01:32;15.05;;;5.72;;
23676;SDS011;31493;49.058;12.190;2023-06-22T13:03:59;17.60;;;5.68;;
23676;SDS011;31493;49.058;12.190;2023-06-22T13:06:26;16.17;;;5.68;;
23676;SDS011;31493;49.058;12.190;2023-06-22T13:08:53;13.82;;;5.57;;
23676;SDS011;31493;49.058;12.190;2023-06-22T13:11:21;11.77;;;5.90;;
23676;SDS011;31493;49.058;12.190;2023-06-22T13:16:15;15.38;;;5.55;;
23676;SDS011;31493;49.058;12.190;2023-06-22T13:18:42;16.58;;;5.22;;
23676;SDS011;31493;49.058;12.190;2023-06-22T13:21:09;16.90;;;5.72;;
23676;SDS011;31493;49.058;12.190;2023-06-22T13:23:36;15.65;;;5.78;;
23676;SDS011;31493;49.058;12.190;2023-06-22T13:26:03;17.17;;;6.07;;
23676;SDS011;31493;49.058;12.190;2023-06-22T13:28:32;12.02;;;5.68;;
23676;SDS011;31493;49.058;12.190;2023-06-22T13:33:25;19.88;;;5.75;;
23676;SDS011;31493;49.058;12.190;2023-06-22T13:35:52;16.00;;;5.68;;
23676;SDS011;31493;49.058;12.190;2023-06-22T13:38:20;21.55;;;5.78;;
23676;SDS011;31493;49.058;12.190;2023-06-22T13:40:48;14.02;;;5.43;;
23676;SDS011;31493;49.058;12.190;2023-06-22T13:43:16;13.30;;;5.18;;
23676;SDS011;31493;49.058;12.190;2023-06-22T13:45:44;17.00;;;5.60;;
23676;SDS011;31493;49.058;12.190;2023-06-22T13:50:38;20.77;;;5.38;;
23676;SDS011;31493;49.058;12.190;2023-06-22T13:53:05;16.42;;;5.20;;
23676;SDS011;31493;49.058;12.190;2023-06-22T13:55:32;12.75;;;5.50;;
23676;SDS011;31493;49.058;12.190;2023-06-22T13:57:59;18.75;;;5.95;;
23676;SDS011;31493;49.058;12.190;2023-06-22T14:00:26;14.02;;;5.93;;
23676;SDS011;31493;49.058;12.190;2023-06-22T14:02:55;12.37;;;5.63;;
23676;SDS011;31493;49.058;12.190;2023-06-22T14:07:49;13.95;;;5.45;;
23676;SDS011;31493;49.058;12.190;2023-06-22T14:10:16;19.65;;;5.40;;
23676;SDS011;31493;49.058;12.190;2023-06-22T14:12:43;16.10;;;5.85;;
23676;SDS011;31493;49.058;12.190;2023-06-22T14:15:10;18.25;;;5.30;;
23676;SDS011;31493;49.058;12.190;2023-06-22T14:17:37;19.33;;;6.68;;
23676;SDS011;31493;49.058;12.190;2023-06-22T14:20:06;18.30;;;6.28;;
23676;SDS011;31493;49.058;12.190;2023-06-22T14:22:34;18.67;;;5.55;;
23676;SDS011;31493;49.058;12.190;2023-06-22T14:25:02;15.52;;;5.43;;
23676;SDS011;31493;49.058;12.190;2023-06-22T14:27:31;16.77;;;6.18;;
23676;SDS011;31493;49.058;12.190;2023-06-22T14:29:58;14.52;;;5.43;;
23676;SDS011;31493;49.058;12.190;2023-06-22T14:32:25;23.90;;;5.57;;
23676;SDS011;31493;49.058;12.190;2023-06-22T14:34:52;16.42;;;5.32;;
23676;SDS011;31493;49.058;12.190;2023-06-22T14:37:20;14.80;;;5.10;;
23676;SDS011;31493;49.058;12.190;2023-06-22T14:42:14;17.42;;;5.25;;
23676;SDS011;31493;49.058;12.190;2023-06-22T14:44:41;18.05;;;5.20;;
23676;SDS011;31493;49.058;12.190;2023-06-22T14:47:08;15.75;;;5.80;;
23676;SDS011;31493;49.058;12.190;2023-06-22T14:49:35;19.08;;;5.55;;
23676;SDS011;31493;49.058;12.190;2023-06-22T14:52:02;14.80;;;5.65;;
23676;SDS011;31493;49.058;12.190;2023-06-22T14:54:31;18.20;;;5.75;;
23676;SDS011;31493;49.058;12.190;2023-06-22T14:56:58;17.52;;;5.32;;
23676;SDS011;31493;49.058;12.190;2023-06-22T14:59:25;15.13;;;5.53;;
23676;SDS011;31493;49.058;12.190;2023-06-22T15:01:52;13.15;;;5.30;;
23676;SDS011;31493;49.058;12.190;2023-06-22T15:04:19;22.00;;;5.45;;